createdAt,value
2017-06-29T00:00:54.473Z,17.91
2017-06-29T00:03:21.900Z,17.88
2017-06-29T00:05:49.315Z,17.90
2017-06-29T00:08:16.770Z,17.93
2017-06-29T00:10:44.190Z,17.80
2017-06-29T00:13:11.590Z,17.84
2017-06-29T00:15:39.033Z,17.77
2017-06-29T00:18:06.470Z,17.69
2017-06-29T00:20:33.920Z,17.75
2017-06-29T00:23:01.357Z,17.70
2017-06-29T00:25:28.821Z,17.49
2017-06-29T00:27:56.250Z,17.55
2017-06-29T00:30:23.662Z,17.59
2017-06-29T00:32:51.110Z,17.59
2017-06-29T00:35:18.522Z,17.49
2017-06-29T00:37:45.925Z,17.47
2017-06-29T00:40:13.363Z,17.62
2017-06-29T00:42:40.897Z,17.53
2017-06-29T00:45:08.430Z,17.47
2017-06-29T00:47:35.877Z,17.62
2017-06-29T00:50:03.307Z,17.61
2017-06-29T00:52:30.735Z,17.71
2017-06-29T00:54:58.178Z,17.75
2017-06-29T00:57:25.611Z,17.88
2017-06-29T00:59:53.031Z,17.91
2017-06-29T01:02:24.391Z,17.88
2017-06-29T01:04:51.832Z,17.67
2017-06-29T01:07:19.235Z,17.71
2017-06-29T01:09:46.675Z,17.58
2017-06-29T01:12:14.113Z,17.57
2017-06-29T01:14:41.544Z,17.68
2017-06-29T01:17:08.967Z,17.81
2017-06-29T01:19:36.427Z,18.03
2017-06-29T01:22:03.841Z,18.12
2017-06-29T01:24:31.289Z,18.26
2017-06-29T01:26:58.718Z,18.32
2017-06-29T01:29:26.185Z,18.32
2017-06-29T01:31:53.646Z,18.32
2017-06-29T01:34:21.056Z,18.45
2017-06-29T01:36:49.419Z,18.42
2017-06-29T01:39:16.849Z,18.08
2017-06-29T01:41:44.277Z,17.99
2017-06-29T01:44:11.704Z,18.04
2017-06-29T01:46:39.120Z,18.03
2017-06-29T01:49:06.555Z,18.02
2017-06-29T01:51:33.983Z,17.87
2017-06-29T01:54:01.396Z,17.84
2017-06-29T01:56:28.871Z,17.82
2017-06-29T01:58:56.306Z,17.61
2017-06-29T02:01:23.708Z,17.58
2017-06-29T02:03:51.144Z,17.51
2017-06-29T02:06:18.553Z,17.44
2017-06-29T02:08:46.013Z,17.37
2017-06-29T02:11:13.419Z,17.30
2017-06-29T02:13:40.868Z,17.33
2017-06-29T02:16:08.309Z,17.41
2017-06-29T02:18:35.711Z,17.51
2017-06-29T02:21:03.276Z,17.68
2017-06-29T02:23:30.710Z,17.66
2017-06-29T02:25:58.118Z,17.63
2017-06-29T02:28:25.568Z,17.47
2017-06-29T02:30:52.974Z,17.42
2017-06-29T02:33:20.371Z,17.48
2017-06-29T02:35:47.817Z,17.50
2017-06-29T02:38:15.218Z,17.55
2017-06-29T02:40:42.636Z,17.35
2017-06-29T02:43:10.059Z,17.35
2017-06-29T02:45:37.491Z,17.31
2017-06-29T02:48:04.964Z,17.35
2017-06-29T02:50:32.373Z,17.36
2017-06-29T02:52:59.844Z,17.38
2017-06-29T02:55:27.267Z,17.45
2017-06-29T02:57:54.678Z,17.43
2017-06-29T03:00:22.148Z,17.43
2017-06-29T03:02:49.580Z,17.54
2017-06-29T03:05:17.005Z,17.47
2017-06-29T03:07:44.443Z,17.51
2017-06-29T03:10:11.844Z,17.65
2017-06-29T03:12:39.311Z,17.68
2017-06-29T03:15:06.769Z,17.47
2017-06-29T03:17:34.278Z,17.61
2017-06-29T03:20:01.890Z,17.62
2017-06-29T03:22:29.431Z,17.61
2017-06-29T03:24:56.858Z,17.61
2017-06-29T03:27:24.290Z,17.52
2017-06-29T03:29:51.721Z,17.49
2017-06-29T03:32:19.129Z,17.43
2017-06-29T03:34:46.585Z,17.33
2017-06-29T03:37:13.991Z,17.30
2017-06-29T03:39:41.445Z,17.30
2017-06-29T03:42:08.879Z,17.19
2017-06-29T03:44:36.327Z,17.30
2017-06-29T03:47:03.764Z,17.23
2017-06-29T03:49:31.192Z,17.27
2017-06-29T03:51:58.659Z,17.12
2017-06-29T03:54:26.143Z,17.10
2017-06-29T03:56:53.621Z,17.18
2017-06-29T03:59:21.052Z,17.23
2017-06-29T04:01:48.492Z,17.31
2017-06-29T04:04:15.925Z,17.28
2017-06-29T04:06:43.332Z,17.32
2017-06-29T04:09:11.160Z,17.24
2017-06-29T04:11:38.597Z,17.22
2017-06-29T04:14:06.007Z,17.37
2017-06-29T04:16:33.504Z,17.55
2017-06-29T04:19:00.909Z,17.48
2017-06-29T04:21:28.367Z,17.49
2017-06-29T04:23:55.824Z,17.56
2017-06-29T04:26:23.287Z,17.56
2017-06-29T04:28:50.747Z,17.60
2017-06-29T04:31:18.181Z,17.49
2017-06-29T04:33:45.608Z,17.45
2017-06-29T04:36:13.057Z,17.63
2017-06-29T04:38:40.460Z,17.63
2017-06-29T04:41:07.876Z,17.65
2017-06-29T04:43:35.317Z,17.73
2017-06-29T04:46:02.752Z,17.69
2017-06-29T04:48:30.188Z,17.76
2017-06-29T04:50:57.608Z,17.77
2017-06-29T04:53:25.095Z,17.53
2017-06-29T04:55:52.530Z,17.64
2017-06-29T04:58:19.931Z,17.67
2017-06-29T05:00:47.452Z,17.65
2017-06-29T05:03:14.880Z,17.52
2017-06-29T05:05:42.453Z,17.58
2017-06-29T05:08:09.952Z,17.63
2017-06-29T05:10:37.360Z,17.60
2017-06-29T05:13:04.834Z,17.67
2017-06-29T05:15:32.292Z,17.73
2017-06-29T05:17:59.712Z,17.65
2017-06-29T05:20:27.138Z,17.61
2017-06-29T05:22:54.647Z,17.56
2017-06-29T05:25:22.128Z,17.37
2017-06-29T05:27:49.688Z,17.37
2017-06-29T05:30:17.160Z,17.38
2017-06-29T05:32:44.564Z,17.44
2017-06-29T05:35:12.042Z,17.38
2017-06-29T05:37:39.450Z,17.39
2017-06-29T05:40:06.953Z,17.37
2017-06-29T05:42:34.407Z,17.32
2017-06-29T05:45:02.799Z,17.32
2017-06-29T05:47:30.247Z,17.29
2017-06-29T05:49:57.659Z,17.30
2017-06-29T05:52:25.071Z,17.27
2017-06-29T05:54:52.515Z,17.26
2017-06-29T05:57:19.944Z,17.22
2017-06-29T05:59:47.353Z,17.18
2017-06-29T06:02:14.875Z,17.17
2017-06-29T06:04:42.279Z,17.24
2017-06-29T06:07:09.722Z,17.15
2017-06-29T06:09:37.144Z,17.20
2017-06-29T06:12:04.582Z,17.11
2017-06-29T06:14:31.988Z,17.24
2017-06-29T06:16:59.399Z,17.21
2017-06-29T06:19:26.865Z,17.22
2017-06-29T06:21:54.308Z,17.28
2017-06-29T06:24:21.739Z,17.16
2017-06-29T06:26:49.149Z,17.28
2017-06-29T06:29:16.590Z,17.34
2017-06-29T06:31:44.027Z,17.11
2017-06-29T06:34:11.440Z,16.95
2017-06-29T06:36:38.900Z,17.02
2017-06-29T06:39:06.339Z,17.07
2017-06-29T06:41:33.757Z,17.07
2017-06-29T06:44:01.187Z,16.99
2017-06-29T06:46:28.694Z,17.14
2017-06-29T06:48:56.106Z,17.12
2017-06-29T06:51:23.902Z,17.10
2017-06-29T06:53:51.308Z,17.06
2017-06-29T06:56:18.744Z,16.97
2017-06-29T06:58:46.154Z,17.00
2017-06-29T07:01:13.589Z,16.98
2017-06-29T07:03:41.001Z,17.02
2017-06-29T07:06:08.441Z,16.99
2017-06-29T07:08:35.859Z,16.95
2017-06-29T07:11:03.361Z,17.00
2017-06-29T07:13:30.766Z,17.08
2017-06-29T07:15:58.201Z,17.12
2017-06-29T07:18:25.636Z,17.19
2017-06-29T07:20:53.070Z,17.20
2017-06-29T07:23:20.472Z,17.25
2017-06-29T07:25:47.920Z,17.18
2017-06-29T07:28:15.315Z,17.06
2017-06-29T07:30:42.743Z,17.02
2017-06-29T07:33:10.181Z,16.97
2017-06-29T07:35:37.636Z,17.09
2017-06-29T07:38:05.151Z,17.09
2017-06-29T07:40:32.675Z,17.29
2017-06-29T07:43:00.079Z,17.20
2017-06-29T07:45:27.507Z,17.31
2017-06-29T07:47:54.968Z,17.26
2017-06-29T07:50:22.387Z,17.27
2017-06-29T07:52:49.795Z,17.40
2017-06-29T07:55:17.308Z,17.35
2017-06-29T07:57:44.792Z,17.33
2017-06-29T08:00:12.215Z,17.37
2017-06-29T08:02:39.711Z,17.50
2017-06-29T08:05:07.135Z,17.63
2017-06-29T08:07:34.624Z,17.85
2017-06-29T08:10:02.028Z,17.74
2017-06-29T08:12:29.648Z,17.58
2017-06-29T08:14:57.106Z,17.65
2017-06-29T08:17:24.560Z,17.90
2017-06-29T08:19:52.004Z,18.09
2017-06-29T08:22:19.447Z,18.29
2017-06-29T08:24:46.887Z,18.48
2017-06-29T08:27:14.329Z,18.60
2017-06-29T08:29:41.749Z,18.58
2017-06-29T08:32:09.291Z,18.57
2017-06-29T08:34:36.742Z,18.73
2017-06-29T08:37:04.301Z,18.83
2017-06-29T08:39:31.715Z,18.57
2017-06-29T08:41:59.155Z,18.68
2017-06-29T08:44:26.571Z,19.05
2017-06-29T08:46:54.022Z,19.07
2017-06-29T08:49:21.567Z,19.30
2017-06-29T08:51:49.019Z,19.38
2017-06-29T08:54:16.439Z,19.32
2017-06-29T08:56:43.870Z,19.47
2017-06-29T08:59:11.318Z,19.50
2017-06-29T09:01:38.764Z,19.66
2017-06-29T09:04:06.195Z,19.94
2017-06-29T09:06:33.640Z,19.83
2017-06-29T09:09:01.057Z,20.13
2017-06-29T09:11:28.508Z,20.08
2017-06-29T09:13:55.975Z,20.47
2017-06-29T09:16:23.412Z,20.30
2017-06-29T09:18:50.861Z,20.42
2017-06-29T09:21:18.268Z,20.47
2017-06-29T09:23:45.745Z,20.79
2017-06-29T09:26:13.151Z,20.84
2017-06-29T09:28:40.590Z,20.88
2017-06-29T09:31:08.039Z,20.89
2017-06-29T09:33:35.435Z,20.60
2017-06-29T09:36:02.995Z,20.97
2017-06-29T09:38:30.406Z,21.08
2017-06-29T09:40:57.920Z,21.26
2017-06-29T09:43:25.331Z,21.36
2017-06-29T09:45:52.790Z,21.33
2017-06-29T09:48:20.217Z,21.32
2017-06-29T09:50:47.670Z,21.47
2017-06-29T09:53:15.139Z,21.54
2017-06-29T09:55:42.593Z,21.54
2017-06-29T09:58:10.072Z,21.40
2017-06-29T10:00:37.543Z,21.30
2017-06-29T10:03:04.987Z,21.08
2017-06-29T10:05:32.431Z,21.23
2017-06-29T10:07:59.852Z,21.19
2017-06-29T10:10:27.381Z,21.48
2017-06-29T10:12:54.797Z,21.65
2017-06-29T10:15:22.374Z,21.68
2017-06-29T10:17:49.798Z,21.48
2017-06-29T10:20:17.248Z,21.61
2017-06-29T10:22:44.664Z,21.75
2017-06-29T10:25:12.068Z,21.45
2017-06-29T10:27:39.522Z,21.51
2017-06-29T10:30:06.923Z,21.96
2017-06-29T10:32:34.327Z,21.86
2017-06-29T10:35:01.759Z,22.16
2017-06-29T10:37:29.211Z,22.25
2017-06-29T10:39:56.895Z,22.10
2017-06-29T10:42:24.295Z,22.48
2017-06-29T10:44:51.732Z,22.45
2017-06-29T10:47:19.195Z,22.43
2017-06-29T10:49:46.607Z,22.45
2017-06-29T10:52:14.687Z,22.77
2017-06-29T10:54:42.124Z,22.92
2017-06-29T10:57:09.562Z,22.85
2017-06-29T10:59:37.020Z,22.87
2017-06-29T11:02:04.462Z,22.86
2017-06-29T11:04:31.928Z,23.11
2017-06-29T11:06:59.504Z,23.28
2017-06-29T11:09:26.975Z,23.65
2017-06-29T11:11:54.388Z,23.74
2017-06-29T11:14:21.884Z,23.85
2017-06-29T11:16:49.291Z,23.88
2017-06-29T11:19:16.693Z,24.19
2017-06-29T11:21:44.143Z,24.07
2017-06-29T11:24:11.559Z,24.11
2017-06-29T11:26:38.969Z,23.93
2017-06-29T11:29:06.408Z,23.49
2017-06-29T11:31:33.831Z,23.91
2017-06-29T11:34:01.270Z,23.80
2017-06-29T11:36:28.680Z,23.69
2017-06-29T11:38:56.124Z,23.49
2017-06-29T11:41:23.531Z,23.60
2017-06-29T11:43:51.100Z,23.30
2017-06-29T11:46:18.542Z,23.51
2017-06-29T11:48:45.939Z,23.86
2017-06-29T11:51:13.440Z,23.80
2017-06-29T11:53:40.912Z,23.87
2017-06-29T11:56:08.331Z,24.12
2017-06-29T11:58:35.750Z,24.45
2017-06-29T12:01:03.192Z,24.87
2017-06-29T12:03:30.621Z,24.87
2017-06-29T12:05:58.039Z,24.59
2017-06-29T12:08:25.483Z,24.19
2017-06-29T12:10:52.904Z,24.74
2017-06-29T12:13:20.536Z,25.03
2017-06-29T12:15:47.957Z,24.75
2017-06-29T12:18:15.363Z,24.72
2017-06-29T12:20:42.799Z,24.86
2017-06-29T12:23:10.204Z,24.84
2017-06-29T12:25:37.641Z,25.07
2017-06-29T12:28:05.047Z,25.12
2017-06-29T12:30:32.540Z,25.04
2017-06-29T12:32:59.979Z,25.42
2017-06-29T12:35:27.560Z,25.47
2017-06-29T12:37:54.995Z,24.90
2017-06-29T12:40:22.401Z,24.63
2017-06-29T12:42:49.836Z,24.56
2017-06-29T12:45:17.272Z,23.59
2017-06-29T12:47:44.684Z,23.33
2017-06-29T12:50:12.160Z,22.87
2017-06-29T12:52:39.584Z,22.75
2017-06-29T12:55:06.995Z,22.59
2017-06-29T12:57:34.565Z,22.24
2017-06-29T13:00:02.126Z,22.27
2017-06-29T13:02:29.618Z,22.39
2017-06-29T13:04:57.052Z,22.79
2017-06-29T13:07:24.462Z,23.14
2017-06-29T13:09:51.909Z,24.26
2017-06-29T13:12:19.357Z,25.86
2017-06-29T13:14:46.849Z,26.58
2017-06-29T13:17:14.299Z,26.97
2017-06-29T13:19:41.717Z,28.08
2017-06-29T13:22:09.146Z,27.68
2017-06-29T13:24:36.559Z,28.55
2017-06-29T13:27:04.000Z,29.61
2017-06-29T13:29:31.398Z,29.75
2017-06-29T13:31:58.809Z,30.37
2017-06-29T13:34:26.276Z,29.71
2017-06-29T13:36:53.726Z,28.93
2017-06-29T13:39:21.168Z,30.28
2017-06-29T13:41:48.595Z,29.74
2017-06-29T13:44:16.091Z,28.85
2017-06-29T13:46:43.511Z,28.44
2017-06-29T13:49:10.951Z,28.94
2017-06-29T13:51:38.379Z,29.09
2017-06-29T13:54:05.816Z,29.48
2017-06-29T13:56:33.237Z,28.38
2017-06-29T13:59:00.674Z,29.28
2017-06-29T14:01:28.080Z,29.87
2017-06-29T14:03:55.569Z,28.73
2017-06-29T14:06:22.997Z,29.10
2017-06-29T14:08:50.449Z,28.82
2017-06-29T14:11:17.855Z,29.34
2017-06-29T14:13:45.283Z,28.59
2017-06-29T14:16:12.785Z,28.49
2017-06-29T14:18:40.335Z,27.18
2017-06-29T14:21:07.746Z,26.51
2017-06-29T14:23:35.184Z,27.32
2017-06-29T14:26:02.634Z,26.56
2017-06-29T14:28:30.111Z,25.55
2017-06-29T14:30:57.551Z,25.03
2017-06-29T14:33:25.010Z,24.71
2017-06-29T14:35:52.473Z,24.54
2017-06-29T14:38:19.871Z,24.65
2017-06-29T14:40:47.799Z,24.65
2017-06-29T14:43:15.269Z,24.19
2017-06-29T14:45:42.852Z,23.75
2017-06-29T14:48:10.279Z,23.24
2017-06-29T14:50:37.687Z,23.04
2017-06-29T14:53:05.116Z,22.81
2017-06-29T14:55:32.519Z,22.46
2017-06-29T14:57:59.980Z,22.25
2017-06-29T15:00:27.400Z,22.19
2017-06-29T15:02:54.824Z,22.01
2017-06-29T15:05:22.279Z,22.33
2017-06-29T15:07:49.698Z,22.75
2017-06-29T15:10:17.132Z,22.99
2017-06-29T15:12:44.550Z,23.45
2017-06-29T15:15:12.013Z,23.54
2017-06-29T15:17:39.431Z,23.81
2017-06-29T15:20:06.843Z,23.94
2017-06-29T15:22:34.291Z,23.77
2017-06-29T15:25:01.696Z,23.46
2017-06-29T15:27:29.102Z,23.64
2017-06-29T15:29:56.636Z,23.57
2017-06-29T15:32:24.183Z,23.65
2017-06-29T15:34:51.634Z,23.59
2017-06-29T15:37:19.039Z,23.52
2017-06-29T15:39:46.477Z,23.24
2017-06-29T15:42:13.899Z,22.72
2017-06-29T15:44:41.336Z,22.60
2017-06-29T15:47:08.772Z,22.41
2017-06-29T15:49:36.311Z,22.51
2017-06-29T15:52:03.767Z,22.48
2017-06-29T15:54:31.173Z,22.51
2017-06-29T15:56:58.633Z,22.65
2017-06-29T15:59:26.038Z,22.62
2017-06-29T16:01:53.556Z,22.54
2017-06-29T16:04:20.987Z,22.51
2017-06-29T16:06:48.496Z,22.25
2017-06-29T16:09:16.052Z,22.32
2017-06-29T16:11:43.515Z,22.39
2017-06-29T16:14:11.024Z,22.34
2017-06-29T16:16:38.569Z,22.47
2017-06-29T16:19:05.987Z,22.55
2017-06-29T16:21:33.464Z,22.19
2017-06-29T16:24:00.922Z,22.10
2017-06-29T16:26:28.375Z,22.01
2017-06-29T16:28:55.805Z,22.39
2017-06-29T16:31:23.259Z,22.33
2017-06-29T16:33:51.299Z,22.31
2017-06-29T16:36:18.726Z,22.02
2017-06-29T16:38:46.159Z,21.92
2017-06-29T16:41:13.595Z,21.94
2017-06-29T16:43:41.004Z,21.95
2017-06-29T16:46:08.436Z,22.00
2017-06-29T16:48:35.839Z,22.17
2017-06-29T16:51:03.291Z,22.32
2017-06-29T16:53:30.739Z,22.26
2017-06-29T16:55:58.154Z,22.18
2017-06-29T16:58:25.558Z,21.80
2017-06-29T17:00:53.047Z,21.70
2017-06-29T17:03:20.487Z,21.85
2017-06-29T17:05:47.900Z,21.90
2017-06-29T17:08:15.448Z,22.09
2017-06-29T17:10:43.135Z,22.14
2017-06-29T17:13:10.576Z,21.93
2017-06-29T17:15:38.334Z,21.87
2017-06-29T17:18:05.738Z,21.71
2017-06-29T17:20:33.187Z,21.67
2017-06-29T17:23:00.585Z,21.78
2017-06-29T17:25:28.053Z,21.87
2017-06-29T17:27:55.488Z,21.81
2017-06-29T17:30:22.895Z,21.77
2017-06-29T17:32:50.364Z,21.64
2017-06-29T17:35:17.934Z,21.62
2017-06-29T17:37:45.429Z,21.53
2017-06-29T17:40:12.839Z,21.21
2017-06-29T17:42:40.281Z,21.21
2017-06-29T17:45:07.742Z,21.17
2017-06-29T17:47:35.181Z,21.15
2017-06-29T17:50:02.623Z,21.07
2017-06-29T17:52:30.078Z,20.82
2017-06-29T17:54:57.525Z,20.71
2017-06-29T17:57:24.958Z,20.57
2017-06-29T17:59:52.413Z,20.44
2017-06-29T18:02:19.841Z,20.23
2017-06-29T18:04:47.273Z,20.19
2017-06-29T18:07:24.511Z,20.27
2017-06-29T18:09:55.885Z,20.22
2017-06-29T18:12:23.372Z,20.21
2017-06-29T18:14:50.806Z,20.18
2017-06-29T18:17:18.271Z,20.05
2017-06-29T18:19:45.699Z,20.03
2017-06-29T18:22:13.113Z,19.88
2017-06-29T18:24:40.563Z,19.98
2017-06-29T18:27:09.899Z,19.97
2017-06-29T18:29:37.350Z,19.96
2017-06-29T18:32:04.796Z,20.10
2017-06-29T18:34:32.235Z,20.03
2017-06-29T18:36:59.704Z,20.04
2017-06-29T18:39:27.135Z,19.91
2017-06-29T18:41:54.559Z,19.94
2017-06-29T18:44:22.068Z,19.97
2017-06-29T18:46:49.477Z,19.98
2017-06-29T18:49:17.572Z,20.01
2017-06-29T18:51:45.068Z,19.74
2017-06-29T18:54:12.808Z,19.65
2017-06-29T18:56:40.220Z,19.83
2017-06-29T18:59:07.762Z,19.76
2017-06-29T19:01:35.184Z,19.77
2017-06-29T19:04:02.605Z,19.80
2017-06-29T19:06:30.224Z,19.72
2017-06-29T19:08:57.764Z,19.56
2017-06-29T19:11:25.200Z,19.58
2017-06-29T19:13:52.987Z,19.57
2017-06-29T19:16:20.447Z,19.65
2017-06-29T19:18:48.276Z,19.77
2017-06-29T19:21:15.829Z,19.82
2017-06-29T19:23:43.264Z,19.52
2017-06-29T19:26:10.805Z,19.51
2017-06-29T19:28:38.273Z,19.41
2017-06-29T19:31:05.798Z,19.37
2017-06-29T19:33:33.283Z,19.43
2017-06-29T19:36:00.713Z,19.44
2017-06-29T19:38:28.212Z,19.48
2017-06-29T19:40:57.169Z,19.42
2017-06-29T19:43:24.572Z,19.51
2017-06-29T19:45:52.007Z,19.45
2017-06-29T19:48:19.454Z,19.36
2017-06-29T19:50:46.898Z,19.37
2017-06-29T19:53:14.304Z,19.43
2017-06-29T19:55:41.718Z,19.45
2017-06-29T19:58:09.149Z,19.52
2017-06-29T20:00:36.565Z,19.51
2017-06-29T20:03:03.996Z,19.46
2017-06-29T20:05:32.164Z,19.29
2017-06-29T20:07:59.620Z,19.36
2017-06-29T20:10:27.067Z,19.23
2017-06-29T20:12:54.501Z,19.28
2017-06-29T20:15:22.029Z,19.10
2017-06-29T20:17:49.447Z,19.01
2017-06-29T20:20:16.894Z,18.91
2017-06-29T20:22:44.305Z,18.92
2017-06-29T20:25:11.747Z,18.89
2017-06-29T20:27:39.165Z,18.81
2017-06-29T20:30:06.640Z,18.81
2017-06-29T20:32:34.055Z,18.80
2017-06-29T20:35:01.455Z,18.75
2017-06-29T20:37:28.905Z,18.74
2017-06-29T20:39:56.320Z,18.69
2017-06-29T20:42:23.743Z,18.64
2017-06-29T20:44:51.180Z,18.57
2017-06-29T20:47:18.600Z,18.57
2017-06-29T20:49:46.097Z,18.55
2017-06-29T20:52:13.510Z,18.45
2017-06-29T20:54:40.927Z,18.41
2017-06-29T20:57:08.355Z,18.44
2017-06-29T20:59:35.779Z,18.23
2017-06-29T21:02:03.233Z,18.22
2017-06-29T21:04:30.663Z,18.18
2017-06-29T21:06:58.091Z,18.06
2017-06-29T21:09:25.640Z,17.79
2017-06-29T21:11:53.072Z,17.77
2017-06-29T21:14:20.531Z,17.72
2017-06-29T21:16:47.938Z,17.58
2017-06-29T21:19:15.389Z,17.72
2017-06-29T21:21:42.798Z,17.72
2017-06-29T21:24:10.236Z,17.69
2017-06-29T21:26:37.687Z,17.68
2017-06-29T21:29:05.189Z,17.60
2017-06-29T21:31:32.631Z,17.51
2017-06-29T21:34:00.045Z,17.56
2017-06-29T21:36:27.464Z,17.29
2017-06-29T21:38:54.939Z,17.33
2017-06-29T21:41:22.354Z,17.28
2017-06-29T21:43:49.804Z,17.14
2017-06-29T21:46:17.236Z,17.04
2017-06-29T21:48:44.672Z,17.08
2017-06-29T21:51:12.106Z,17.21
2017-06-29T21:53:39.519Z,17.28
2017-06-29T21:56:06.963Z,17.20
2017-06-29T21:58:34.414Z,17.15
2017-06-29T22:01:01.841Z,17.09
2017-06-29T22:03:29.940Z,17.03
2017-06-29T22:05:57.387Z,16.84
2017-06-29T22:08:24.799Z,16.87
2017-06-29T22:10:52.249Z,16.66
2017-06-29T22:13:19.655Z,16.72
2017-06-29T22:15:47.072Z,16.68
2017-06-29T22:18:14.531Z,16.67
2017-06-29T22:20:42.043Z,16.58
2017-06-29T22:23:09.481Z,16.66
2017-06-29T22:25:36.928Z,16.68
2017-06-29T22:28:04.327Z,16.63
2017-06-29T22:30:31.760Z,16.63
2017-06-29T22:32:59.173Z,16.61
2017-06-29T22:35:26.628Z,16.53
2017-06-29T22:37:54.078Z,16.28
2017-06-29T22:40:21.551Z,16.27
2017-06-29T22:42:48.959Z,16.29
2017-06-29T22:45:16.364Z,16.30
2017-06-29T22:47:43.803Z,16.32
2017-06-29T22:50:11.292Z,16.29
2017-06-29T22:52:38.714Z,16.26
2017-06-29T22:55:06.135Z,16.22
2017-06-29T22:57:33.591Z,16.13
2017-06-29T23:00:01.020Z,16.20
2017-06-29T23:02:28.426Z,16.11
2017-06-29T23:04:55.859Z,16.18
2017-06-29T23:07:23.271Z,16.19
2017-06-29T23:09:50.726Z,16.40
2017-06-29T23:12:18.152Z,16.11
2017-06-29T23:14:45.548Z,16.19
2017-06-29T23:17:13.001Z,16.32
2017-06-29T23:19:40.436Z,16.25
2017-06-29T23:22:07.835Z,16.08
2017-06-29T23:24:35.282Z,16.11
2017-06-29T23:27:02.719Z,15.78
2017-06-29T23:29:30.144Z,15.98
2017-06-29T23:31:57.552Z,15.85
2017-06-29T23:34:25.070Z,15.91
2017-06-29T23:36:52.471Z,15.92
2017-06-29T23:39:19.983Z,16.06
2017-06-29T23:41:47.436Z,15.88
2017-06-29T23:44:14.874Z,15.86
2017-06-29T23:46:42.287Z,16.00
2017-06-29T23:49:09.691Z,15.90
2017-06-29T23:51:37.180Z,15.95
2017-06-29T23:54:04.576Z,15.70
2017-06-29T23:56:32.014Z,15.86
2017-06-29T23:58:59.424Z,15.99
